createdAt,value
2022-11-21T00:00:52.014Z,27.35
2022-11-21T00:03:19.579Z,27.10
2022-11-21T00:05:47.878Z,26.83
2022-11-21T00:08:24.797Z,26.05
2022-11-21T00:10:52.718Z,26.98
2022-11-21T00:13:20.975Z,26.05
2022-11-21T00:15:48.893Z,26.25
2022-11-21T00:18:16.499Z,25.77
2022-11-21T00:20:44.404Z,26.73
2022-11-21T00:23:12.362Z,27.45
2022-11-21T00:25:39.955Z,27.50
2022-11-21T00:28:07.671Z,27.83
2022-11-21T00:30:41.465Z,28.80
2022-11-21T00:33:09.533Z,27.48
2022-11-21T00:35:37.120Z,26.80
2022-11-21T00:38:04.740Z,27.27
2022-11-21T00:40:37.745Z,27.17
2022-11-21T00:43:05.587Z,26.58
2022-11-21T00:45:33.188Z,26.40
2022-11-21T00:48:00.765Z,26.92
2022-11-21T00:50:28.467Z,25.33
2022-11-21T00:52:56.486Z,25.92
2022-11-21T00:55:24.535Z,26.08
2022-11-21T00:57:52.389Z,27.08
2022-11-21T01:00:20.019Z,26.55
2022-11-21T01:02:47.581Z,27.13
2022-11-21T01:05:15.148Z,27.83
2022-11-21T01:07:42.860Z,26.90
2022-11-21T01:10:10.527Z,27.98
2022-11-21T01:12:38.225Z,26.40
2022-11-21T01:15:06.000Z,27.25
2022-11-21T01:17:34.301Z,26.95
2022-11-21T01:20:01.896Z,25.48
2022-11-21T01:22:29.424Z,25.80
2022-11-21T01:24:56.921Z,25.35
2022-11-21T01:27:24.661Z,26.73
2022-11-21T01:29:52.541Z,26.77
2022-11-21T01:32:20.093Z,26.60
2022-11-21T01:34:47.597Z,26.48
2022-11-21T01:37:15.337Z,27.48
2022-11-21T01:39:42.899Z,29.45
2022-11-21T01:42:13.093Z,28.08
2022-11-21T01:44:48.860Z,26.38
2022-11-21T01:47:16.652Z,27.38
2022-11-21T01:49:44.884Z,27.80
2022-11-21T01:52:17.034Z,28.23
2022-11-21T01:54:47.349Z,28.10
2022-11-21T01:57:19.466Z,27.70
2022-11-21T01:59:50.201Z,27.10
2022-11-21T02:02:21.973Z,27.58
2022-11-21T02:04:50.601Z,27.13
2022-11-21T02:07:20.434Z,27.02
2022-11-21T02:09:50.622Z,28.25
2022-11-21T02:12:27.130Z,28.23
2022-11-21T02:14:55.512Z,27.80
2022-11-21T02:17:23.043Z,27.02
2022-11-21T02:19:58.394Z,28.52
2022-11-21T02:22:31.051Z,26.48
2022-11-21T02:25:07.655Z,27.42
2022-11-21T02:27:35.372Z,26.27
2022-11-21T02:30:03.880Z,28.02
2022-11-21T02:32:38.862Z,26.05
2022-11-21T02:35:06.891Z,26.40
2022-11-21T02:37:35.637Z,26.50
2022-11-21T02:40:07.314Z,27.33
2022-11-21T02:42:46.871Z,25.67
2022-11-21T02:45:26.254Z,24.75
2022-11-21T02:47:59.420Z,25.80
2022-11-21T02:50:32.584Z,25.55
2022-11-21T02:53:09.133Z,25.73
2022-11-21T02:58:05.499Z,23.60
2022-11-21T03:00:34.301Z,24.60
2022-11-21T03:03:01.930Z,22.88
2022-11-21T03:05:29.522Z,24.55
2022-11-21T03:07:57.175Z,22.35
2022-11-21T03:10:25.004Z,22.95
2022-11-21T03:13:00.711Z,24.00
2022-11-21T03:15:30.053Z,24.67
2022-11-21T03:17:57.833Z,24.60
2022-11-21T03:20:25.496Z,24.95
2022-11-21T03:22:53.623Z,25.95
2022-11-21T03:25:21.317Z,26.38
2022-11-21T03:27:53.339Z,24.17
2022-11-21T03:30:21.656Z,23.17
2022-11-21T03:32:49.338Z,24.48
2022-11-21T03:35:17.544Z,22.55
2022-11-21T03:37:45.279Z,22.60
2022-11-21T03:40:13.121Z,22.60
2022-11-21T03:42:40.651Z,23.55
2022-11-21T03:45:08.494Z,24.00
2022-11-21T03:47:36.158Z,24.67
2022-11-21T03:50:03.845Z,25.45
2022-11-21T03:52:31.813Z,24.65
2022-11-21T03:54:59.442Z,24.20
2022-11-21T03:57:26.964Z,25.00
2022-11-21T03:59:54.504Z,24.63
2022-11-21T04:02:22.076Z,23.85
2022-11-21T04:04:49.666Z,23.77
2022-11-21T04:07:17.254Z,24.67
2022-11-21T04:09:44.855Z,24.20
2022-11-21T04:12:12.408Z,25.15
2022-11-21T04:14:39.923Z,24.58
2022-11-21T04:17:07.470Z,24.60
2022-11-21T04:19:34.988Z,23.90
2022-11-21T04:22:02.629Z,22.88
2022-11-21T04:24:30.588Z,22.25
2022-11-21T04:26:58.303Z,23.00
2022-11-21T04:29:25.853Z,22.85
2022-11-21T04:31:53.384Z,22.08
2022-11-21T04:34:20.979Z,21.90
2022-11-21T04:36:48.585Z,22.95
2022-11-21T04:39:16.155Z,23.35
2022-11-21T04:41:43.712Z,23.13
2022-11-21T04:44:11.235Z,23.52
2022-11-21T04:46:38.799Z,23.73
2022-11-21T04:49:06.326Z,23.95
2022-11-21T04:51:33.875Z,22.20
2022-11-21T04:54:01.405Z,23.58
2022-11-21T04:56:28.998Z,23.23
2022-11-21T04:58:56.562Z,23.88
2022-11-21T05:01:24.138Z,22.55
2022-11-21T05:03:52.964Z,21.98
2022-11-21T05:06:20.549Z,21.75
2022-11-21T05:08:52.740Z,20.77
2022-11-21T05:11:40.353Z,21.63
2022-11-21T05:14:07.871Z,19.80
2022-11-21T05:16:35.839Z,20.73
2022-11-21T05:19:03.617Z,20.58
2022-11-21T05:21:31.206Z,20.75
2022-11-21T05:23:58.809Z,20.58
2022-11-21T05:26:26.352Z,19.30
2022-11-21T05:28:53.917Z,18.65
2022-11-21T05:31:21.464Z,20.40
2022-11-21T05:33:48.992Z,18.00
2022-11-21T05:36:16.555Z,18.60
2022-11-21T05:38:44.119Z,18.40
2022-11-21T05:41:11.646Z,17.50
2022-11-21T05:43:48.122Z,16.77
2022-11-21T05:48:43.282Z,15.85
2022-11-21T05:51:10.860Z,16.60
2022-11-21T05:53:38.672Z,17.67
2022-11-21T05:56:07.282Z,17.95
2022-11-21T05:58:35.076Z,18.70
2022-11-21T06:01:03.007Z,19.92
2022-11-21T06:03:32.860Z,19.98
2022-11-21T06:06:06.601Z,19.65
2022-11-21T06:08:35.595Z,19.95
2022-11-21T06:11:03.724Z,19.73
2022-11-21T06:13:33.568Z,18.27
2022-11-21T06:16:01.123Z,19.00
2022-11-21T06:18:29.534Z,17.65
2022-11-21T06:21:01.714Z,18.27
2022-11-21T06:23:29.247Z,18.45
2022-11-21T06:25:58.204Z,17.42
2022-11-21T06:28:26.701Z,18.33
2022-11-21T06:30:54.362Z,18.48
2022-11-21T06:33:21.919Z,17.73
2022-11-21T06:35:49.544Z,18.90
2022-11-21T06:38:18.780Z,19.65
2022-11-21T06:40:46.732Z,18.02
2022-11-21T06:43:14.555Z,21.08
2022-11-21T06:45:42.155Z,21.83
2022-11-21T06:48:09.761Z,20.35
2022-11-21T06:50:38.643Z,20.50
2022-11-21T06:53:06.247Z,18.48
2022-11-21T06:55:33.791Z,19.52
2022-11-21T06:58:01.310Z,19.35
2022-11-21T07:00:28.865Z,18.63
2022-11-21T07:03:03.152Z,18.67
2022-11-21T07:05:31.814Z,18.33
2022-11-21T07:08:03.203Z,17.52
2022-11-21T07:10:31.247Z,15.57
2022-11-21T07:13:19.820Z,14.73
2022-11-21T07:15:48.040Z,15.02
2022-11-21T07:18:15.822Z,14.00
2022-11-21T07:20:43.606Z,13.65
2022-11-21T07:23:11.129Z,12.88
2022-11-21T07:25:39.665Z,12.70
2022-11-21T07:28:07.993Z,13.10
2022-11-21T07:30:36.436Z,12.48
2022-11-21T07:33:05.620Z,12.52
2022-11-21T07:35:34.320Z,13.05
2022-11-21T07:38:02.171Z,12.48
2022-11-21T07:40:29.961Z,12.57
2022-11-21T07:43:02.813Z,12.77
2022-11-21T07:45:32.306Z,13.68
2022-11-21T07:48:00.714Z,14.45
2022-11-21T07:50:28.820Z,14.27
2022-11-21T07:52:59.760Z,14.77
2022-11-21T07:55:29.668Z,13.90
2022-11-21T07:58:08.264Z,13.38
2022-11-21T08:00:37.905Z,13.55
2022-11-21T08:03:06.880Z,13.40
2022-11-21T08:05:38.229Z,13.57
2022-11-21T08:08:09.423Z,13.43
2022-11-21T08:10:41.658Z,14.70
2022-11-21T08:13:09.505Z,15.60
2022-11-21T08:15:37.384Z,14.32
2022-11-21T08:18:08.741Z,14.32
2022-11-21T08:20:36.321Z,14.70
2022-11-21T08:23:04.156Z,13.93
2022-11-21T08:25:31.741Z,14.50
2022-11-21T08:27:59.885Z,14.68
2022-11-21T08:30:27.446Z,16.60
2022-11-21T08:32:55.029Z,15.95
2022-11-21T08:35:22.733Z,16.42
2022-11-21T08:37:50.324Z,15.32
2022-11-21T08:40:18.027Z,15.52
2022-11-21T08:42:45.635Z,16.15
2022-11-21T08:45:13.229Z,15.82
2022-11-21T08:47:41.061Z,18.60
2022-11-21T08:50:09.397Z,18.88
2022-11-21T08:52:37.087Z,21.00
2022-11-21T08:55:04.801Z,19.10
2022-11-21T08:57:32.330Z,20.20
2022-11-21T08:59:59.849Z,21.35
2022-11-21T09:02:27.479Z,21.27
2022-11-21T09:04:54.994Z,24.45
2022-11-21T09:07:22.576Z,28.10
2022-11-21T09:09:50.115Z,28.08
2022-11-21T09:12:17.621Z,28.15
2022-11-21T09:15:03.793Z,28.83
2022-11-21T09:17:50.203Z,26.70
2022-11-21T09:20:17.810Z,28.60
2022-11-21T09:22:45.425Z,30.75
2022-11-21T09:25:12.958Z,31.48
2022-11-21T09:27:40.526Z,30.25
2022-11-21T09:30:08.371Z,29.45
2022-11-21T09:32:36.966Z,29.20
2022-11-21T09:35:04.937Z,32.42
2022-11-21T09:37:37.297Z,30.80
2022-11-21T09:40:08.283Z,30.20
2022-11-21T09:42:54.734Z,30.95
2022-11-21T09:45:37.708Z,29.55
2022-11-21T09:48:09.932Z,31.92
2022-11-21T09:50:40.041Z,32.17
2022-11-21T09:53:10.699Z,31.65
2022-11-21T09:55:38.370Z,31.27
2022-11-21T09:58:07.494Z,31.30
2022-11-21T10:00:35.168Z,35.30
2022-11-21T10:03:03.209Z,31.25
2022-11-21T10:05:36.881Z,34.03
2022-11-21T10:08:24.888Z,32.47
2022-11-21T10:11:16.077Z,32.38
2022-11-21T10:14:05.447Z,32.83
2022-11-21T10:16:52.384Z,34.30
2022-11-21T10:19:19.938Z,33.30
2022-11-21T10:21:50.554Z,33.70
2022-11-21T10:24:36.603Z,33.83
2022-11-21T10:27:08.603Z,34.22
2022-11-21T10:29:39.515Z,33.80
2022-11-21T10:32:13.970Z,33.50
2022-11-21T10:34:41.503Z,33.60
2022-11-21T10:37:16.228Z,33.33
2022-11-21T10:39:50.644Z,34.42
2022-11-21T10:42:24.882Z,33.60
2022-11-21T10:45:11.623Z,34.40
2022-11-21T10:47:39.210Z,35.05
2022-11-21T10:50:09.686Z,35.50
2022-11-21T10:52:40.580Z,35.58
2022-11-21T10:55:10.027Z,35.85
2022-11-21T10:57:40.519Z,35.67
2022-11-21T11:00:14.297Z,36.15
2022-11-21T11:02:43.065Z,33.38
2022-11-21T11:05:18.514Z,38.00
2022-11-21T11:08:05.057Z,38.80
2022-11-21T11:10:33.931Z,38.70
2022-11-21T11:13:50.818Z,38.80
2022-11-21T11:16:16.113Z,43.47
2022-11-21T11:18:48.638Z,38.95
2022-11-21T11:21:23.558Z,39.72
2022-11-21T11:23:52.153Z,44.05
2022-11-21T11:26:27.679Z,49.03
2022-11-21T11:29:07.858Z,47.40
2022-11-21T11:31:42.247Z,47.03
2022-11-21T11:34:13.810Z,44.92
2022-11-21T11:36:45.133Z,45.85
2022-11-21T11:39:23.426Z,46.20
2022-11-21T11:42:28.416Z,45.47
2022-11-21T11:45:32.784Z,46.10
2022-11-21T11:48:01.241Z,48.95
2022-11-21T11:50:43.974Z,45.05
2022-11-21T11:53:17.444Z,43.85
2022-11-21T11:56:11.089Z,43.22
2022-11-21T11:59:05.100Z,42.10
2022-11-21T12:01:59.397Z,45.03
2022-11-21T12:04:30.991Z,43.83
2022-11-21T12:10:06.932Z,43.97
2022-11-21T12:12:42.665Z,42.13
2022-11-21T12:15:31.693Z,42.05
2022-11-21T12:18:17.912Z,40.83
2022-11-21T12:20:55.054Z,41.55
2022-11-21T12:23:23.990Z,42.22
2022-11-21T12:26:05.788Z,43.05
2022-11-21T12:28:36.153Z,42.58
2022-11-21T12:31:10.027Z,41.58
2022-11-21T12:33:43.528Z,42.08
2022-11-21T12:36:18.240Z,41.97
2022-11-21T12:38:49.029Z,40.67
2022-11-21T12:41:35.576Z,43.10
2022-11-21T12:44:32.458Z,41.33
2022-11-21T12:47:00.143Z,41.15
2022-11-21T12:49:56.330Z,41.65
2022-11-21T12:53:00.640Z,43.40
2022-11-21T12:55:39.036Z,41.50
2022-11-21T12:58:30.962Z,44.40
2022-11-21T13:01:10.038Z,44.80
2022-11-21T13:03:57.566Z,44.80
2022-11-21T13:06:37.105Z,46.38
2022-11-21T13:09:06.672Z,43.60
2022-11-21T13:11:58.606Z,44.13
2022-11-21T13:14:28.947Z,44.20
2022-11-21T13:17:11.583Z,45.72
2022-11-21T13:19:50.928Z,47.80
2022-11-21T13:22:36.908Z,44.80
2022-11-21T13:25:10.689Z,46.47
2022-11-21T13:27:41.885Z,46.42
2022-11-21T13:30:10.450Z,45.40
2022-11-21T13:32:44.890Z,46.90
2022-11-21T13:35:15.451Z,47.65
2022-11-21T13:38:04.655Z,48.88
2022-11-21T13:40:39.987Z,56.92
2022-11-21T13:46:02.036Z,53.90
2022-11-21T13:48:34.595Z,52.08
2022-11-21T13:51:08.415Z,51.33
2022-11-21T13:53:35.919Z,63.45
2022-11-21T13:56:11.867Z,46.47
2022-11-21T13:58:54.675Z,44.58
2022-11-21T14:01:41.193Z,43.70
2022-11-21T14:04:08.827Z,43.97
2022-11-21T14:06:37.231Z,43.95
2022-11-21T14:09:10.342Z,43.40
2022-11-21T14:11:42.347Z,43.50
2022-11-21T14:14:10.863Z,44.92
2022-11-21T14:16:43.875Z,46.42
2022-11-21T14:19:18.950Z,45.67
2022-11-21T14:21:47.298Z,46.95
2022-11-21T14:24:17.305Z,49.60
2022-11-21T14:26:47.311Z,50.33
2022-11-21T14:29:35.233Z,50.65
2022-11-21T14:32:02.754Z,54.25
2022-11-21T14:34:31.689Z,52.78
2022-11-21T14:37:05.629Z,69.15
2022-11-21T14:39:44.380Z,51.85
2022-11-21T14:42:16.929Z,58.67
2022-11-21T14:44:44.857Z,52.03
2022-11-21T14:47:25.882Z,49.22
2022-11-21T14:49:55.456Z,49.83
2022-11-21T14:52:27.739Z,50.88
2022-11-21T14:55:28.637Z,52.90
2022-11-21T14:57:47.172Z,50.28
2022-11-21T15:03:18.376Z,53.90
2022-11-21T15:06:01.959Z,56.30
2022-11-21T15:09:06.107Z,57.05
2022-11-21T15:11:22.636Z,59.92
2022-11-21T15:14:14.397Z,60.35
2022-11-21T15:16:38.963Z,58.95
2022-11-21T15:19:10.456Z,61.30
2022-11-21T15:21:38.292Z,60.35
2022-11-21T15:24:40.167Z,59.72
2022-11-21T15:27:26.493Z,58.75
2022-11-21T15:30:06.518Z,58.08
2022-11-21T15:32:34.084Z,60.10
2022-11-21T15:35:21.573Z,60.55
2022-11-21T15:37:50.050Z,59.35
2022-11-21T15:40:19.791Z,60.80
2022-11-21T15:42:47.694Z,65.00
2022-11-21T15:45:19.766Z,63.67
2022-11-21T15:47:48.122Z,65.38
2022-11-21T15:50:16.570Z,66.20
2022-11-21T15:52:44.960Z,70.15
2022-11-21T15:55:24.662Z,66.65
2022-11-21T15:57:52.214Z,68.68
2022-11-21T16:00:19.891Z,71.38
2022-11-21T16:02:47.648Z,70.55
2022-11-21T16:05:15.781Z,75.60
2022-11-21T16:07:43.373Z,74.07
2022-11-21T16:10:19.749Z,76.90
2022-11-21T16:12:49.220Z,77.05
2022-11-21T16:15:16.910Z,75.65
2022-11-21T16:17:45.603Z,109.18
2022-11-21T16:20:13.794Z,86.13
2022-11-21T16:22:45.864Z,79.30
2022-11-21T16:25:15.005Z,77.28
2022-11-21T16:27:42.574Z,77.28
2022-11-21T16:30:10.301Z,78.22
2022-11-21T16:32:37.848Z,75.35
2022-11-21T16:35:05.775Z,74.25
2022-11-21T16:37:33.624Z,72.65
2022-11-21T16:40:01.179Z,72.25
2022-11-21T16:42:28.797Z,71.97
2022-11-21T16:44:56.334Z,68.32
2022-11-21T16:47:23.986Z,66.78
2022-11-21T16:49:51.553Z,63.22
2022-11-21T16:52:19.126Z,61.22
2022-11-21T16:54:47.197Z,57.85
2022-11-21T16:57:14.912Z,56.55
2022-11-21T16:59:42.447Z,54.38
2022-11-21T17:02:10.356Z,54.92
2022-11-21T17:04:37.972Z,51.60
2022-11-21T17:07:05.862Z,49.55
2022-11-21T17:09:33.570Z,49.35
2022-11-21T17:12:01.189Z,48.00
2022-11-21T17:14:29.142Z,50.05
2022-11-21T17:16:58.465Z,50.80
2022-11-21T17:19:26.498Z,51.47
2022-11-21T17:21:54.088Z,51.05
2022-11-21T17:24:21.825Z,52.15
2022-11-21T17:26:49.399Z,50.67
2022-11-21T17:29:17.010Z,49.97
2022-11-21T17:31:44.665Z,50.47
2022-11-21T17:34:13.253Z,51.08
2022-11-21T17:36:40.813Z,50.22
2022-11-21T17:39:08.432Z,51.55
2022-11-21T17:41:36.179Z,42.95
2022-11-21T17:44:03.755Z,39.05
2022-11-21T17:46:31.319Z,34.25
2022-11-21T17:48:59.446Z,33.20
2022-11-21T17:51:34.938Z,32.38
2022-11-21T17:54:02.739Z,31.52
2022-11-21T17:56:31.723Z,29.40
2022-11-21T17:58:59.467Z,28.65
2022-11-21T18:01:27.522Z,27.23
2022-11-21T18:03:57.145Z,26.58
2022-11-21T18:06:25.286Z,24.52
2022-11-21T18:08:53.085Z,25.00
2022-11-21T18:11:21.500Z,23.92
2022-11-21T18:13:49.751Z,25.17
2022-11-21T18:16:18.981Z,25.30
2022-11-21T18:18:46.609Z,25.20
2022-11-21T18:21:15.800Z,24.42
2022-11-21T18:23:47.179Z,24.58
2022-11-21T18:26:16.142Z,23.83
2022-11-21T18:28:44.038Z,23.30
2022-11-21T18:31:12.757Z,23.73
2022-11-21T18:33:40.698Z,22.92
2022-11-21T18:36:09.242Z,22.27
2022-11-21T18:38:48.732Z,21.98
2022-11-21T18:41:23.616Z,21.80
2022-11-21T18:43:55.269Z,22.42
2022-11-21T18:46:24.170Z,25.70
2022-11-21T18:49:02.767Z,25.45
2022-11-21T18:51:33.044Z,24.98
2022-11-21T18:54:04.150Z,26.02
2022-11-21T18:56:31.742Z,25.08
2022-11-21T18:58:59.562Z,25.58
2022-11-21T19:01:28.997Z,26.48
2022-11-21T19:03:57.002Z,25.90
2022-11-21T19:06:25.973Z,24.80
2022-11-21T19:08:54.766Z,25.60
2022-11-21T19:11:24.330Z,29.52
2022-11-21T19:13:52.931Z,29.13
2022-11-21T19:16:22.047Z,28.65
2022-11-21T19:19:11.674Z,29.02
2022-11-21T19:21:38.504Z,28.55
2022-11-21T19:24:06.931Z,24.95
2022-11-21T19:26:34.591Z,27.02
2022-11-21T19:29:02.157Z,23.88
2022-11-21T19:31:29.713Z,25.45
2022-11-21T19:33:58.916Z,23.38
2022-11-21T19:36:26.474Z,24.98
2022-11-21T19:38:54.019Z,24.85
2022-11-21T19:41:24.289Z,23.63
2022-11-21T19:43:53.400Z,23.15
2022-11-21T19:46:31.452Z,22.73
2022-11-21T19:48:59.396Z,21.45
2022-11-21T19:51:34.414Z,21.88
2022-11-21T19:54:02.857Z,21.45
2022-11-21T19:56:30.617Z,21.30
2022-11-21T19:58:58.803Z,22.33
2022-11-21T20:01:27.621Z,21.88
2022-11-21T20:03:56.648Z,22.17
2022-11-21T20:06:25.378Z,21.77
2022-11-21T20:09:06.907Z,21.73
2022-11-21T20:11:34.910Z,21.30
2022-11-21T20:14:02.586Z,22.92
2022-11-21T20:16:34.468Z,22.38
2022-11-21T20:19:02.946Z,22.42
2022-11-21T20:21:30.882Z,23.95
2022-11-21T20:23:58.454Z,23.30
2022-11-21T20:26:26.600Z,23.70
2022-11-21T20:28:54.277Z,21.63
2022-11-21T20:31:23.161Z,33.17
2022-11-21T20:33:51.651Z,28.98
2022-11-21T20:36:20.327Z,23.83
2022-11-21T20:38:55.134Z,21.65
2022-11-21T20:41:23.917Z,21.63
2022-11-21T20:46:43.159Z,23.42
2022-11-21T20:49:10.938Z,20.48
2022-11-21T20:54:26.500Z,20.83
2022-11-21T20:56:54.290Z,21.17
2022-11-21T20:59:21.844Z,22.67
2022-11-21T21:01:49.398Z,24.67
2022-11-21T21:04:17.018Z,38.60
2022-11-21T21:06:44.681Z,52.80
2022-11-21T21:09:12.201Z,29.30
2022-11-21T21:11:55.160Z,31.08
2022-11-21T21:14:23.029Z,35.10
2022-11-21T21:16:50.900Z,47.47
2022-11-21T21:19:18.497Z,46.00
2022-11-21T21:21:46.297Z,53.38
2022-11-21T21:24:14.508Z,57.97
2022-11-21T21:26:46.482Z,60.58
2022-11-21T21:29:15.923Z,61.45
2022-11-21T21:31:50.105Z,66.25
2022-11-21T21:34:19.167Z,67.97
2022-11-21T21:36:47.077Z,68.68
2022-11-21T21:39:14.688Z,69.70
2022-11-21T21:41:46.405Z,69.18
2022-11-21T21:44:14.826Z,66.78
2022-11-21T21:46:42.347Z,65.47
2022-11-21T21:49:09.931Z,67.65
2022-11-21T21:51:38.078Z,68.13
2022-11-21T21:54:06.590Z,66.90
2022-11-21T21:56:34.240Z,68.47
2022-11-21T21:59:02.965Z,66.78
2022-11-21T22:01:31.949Z,64.93
2022-11-21T22:04:01.084Z,68.47
2022-11-21T22:06:28.973Z,64.55
2022-11-21T22:08:56.849Z,63.03
2022-11-21T22:11:28.676Z,62.25
2022-11-21T22:13:57.593Z,64.15
2022-11-21T22:16:25.566Z,68.72
2022-11-21T22:18:53.434Z,62.97
2022-11-21T22:21:20.989Z,62.25
2022-11-21T22:24:17.718Z,60.30
2022-11-21T22:26:36.334Z,57.13
2022-11-21T22:29:04.134Z,57.83
2022-11-21T22:31:31.812Z,57.72
2022-11-21T22:33:59.750Z,59.53
2022-11-21T22:36:27.472Z,57.95
2022-11-21T22:38:55.587Z,58.25
2022-11-21T22:41:24.260Z,59.63
2022-11-21T22:43:53.113Z,57.83
2022-11-21T22:46:20.755Z,53.72
2022-11-21T22:48:48.723Z,51.88
2022-11-21T22:51:21.039Z,53.65
2022-11-21T22:53:48.778Z,52.50
2022-11-21T22:56:17.936Z,50.13
2022-11-21T22:58:45.940Z,51.97
2022-11-21T23:01:17.501Z,52.40
2022-11-21T23:03:45.338Z,52.85
2022-11-21T23:06:14.053Z,52.88
2022-11-21T23:08:42.159Z,54.33
2022-11-21T23:11:21.500Z,54.50
2022-11-21T23:13:49.418Z,53.60
2022-11-21T23:16:17.347Z,54.42
2022-11-21T23:18:45.264Z,57.47
2022-11-21T23:21:13.279Z,56.78
2022-11-21T23:23:44.003Z,148.75
2022-11-21T23:26:11.857Z,102.15
2022-11-21T23:28:39.733Z,48.03
2022-11-21T23:31:07.272Z,51.47
2022-11-21T23:33:34.786Z,54.35
2022-11-21T23:36:17.775Z,53.78
2022-11-21T23:38:45.322Z,46.78
2022-11-21T23:41:12.863Z,50.40
2022-11-21T23:43:40.363Z,53.83
2022-11-21T23:46:10.762Z,50.80
2022-11-21T23:48:38.280Z,48.10
2022-11-21T23:51:07.161Z,46.00
2022-11-21T23:53:34.768Z,44.05
2022-11-21T23:56:02.395Z,39.75
2022-11-21T23:58:29.950Z,38.22
